Hill City, South Dakota
Current Conditions -  °F | °C
As of 5:53 AM on Saturday 22 Nov 2014 (Local Time) from KCUT Reporting Station
Clear Clear  
Wind Chill: 27°   Ceiling: Unl
Heat Index: 35°   Visibility: 10mi
Dew Point: 20°   Wind: 10mph
Humidity: 54%   Direction: 250°WSW
Pressure: 29.58"   Gusts: 18mph
Location:  43.93°N, 103.58°W
Report Text: KCUT 221253Z AUTO 25009G16KT 10SM CLR 02/M07 A2958 RMK AO2 SLP024 T00171067
Loading
Personal Weather Stations






























Interactive Weather Map New forecast layout! Learn more

10-Day Weather Forecast

Advertisements
Track Severe Weather on mobile